CZM weather

Cozumel International Airport
Cozumel, Quintana Roo, Mexico

Public forecast

Using degrees Celsius for public forecast. Weather courtesy of forecast.io.

Current aviation weather report (METAR) for Cozumel International Airport

Retrieved 2019/10/15 10:42 UTC (16 minutes ago):

MMCZ 151042Z 11003KT 7SM FEW015 26/25 A2990 RMK 8/500 CI

Aviation forecast (TAF) for Cozumel International Airport

Retrieved 2019/10/15 06:19 UTC (5 hours ago):

TAF MMCZ 150512Z 1506/1612 10005KT P6SM SCT015 SCT080 BKN250 FM151800 13010KT P6SM BKN015 BKN080 OVC250 PROB40 1523/1603 5SM -TSRA BKN015CB FM160700 12006KT P6SM SCT015 SCT090 BKN240